<?xml version="1.0" encoding="utf-8"?>
<gpx xmlns:xsi="http://www.w3.org/2001/XMLSchema-instance" xmlns:xsd="http://www.w3.org/2001/XMLSchema" version="1.1" creator="Shapelink.com" xmlns="http://www.topografix.com/GPX/1/1" xmlns:gpxtpx="http://www.garmin.com/xmlschemas/TrackPointExtension/v1">
  <metadata>
    <name>Esquí nórdico 12.54 km, 2020-01-01</name>
    <desc></desc>
    <author><name>Per Rooth</name></author> 
    <time>2020-01-01T16:33:17Z</time>
  </metadata>
  <trk>
    <name>Esquí nórdico 12.54 km, 2020-01-01</name>
    <trkseg>
      <trkpt lat="61.300142952111" lon="12.244739099577">
        <ele>448</ele>
        <time>2020-01-01T16:33:17Z</time>
      </trkpt>
      <trkpt lat="61.300088721218" lon="12.244809591356">
        <ele>448.2</ele>
        <time>2020-01-01T16:33:47Z</time>
      </trkpt>
      <trkpt lat="61.300064916622" lon="12.244828199174">
        <ele>448.2</ele>
        <time>2020-01-01T16:33:49Z</time>
      </trkpt>
      <trkpt lat="61.299968105677" lon="12.244945545774">
        <ele>449.2</ele>
        <time>2020-01-01T16:33:53Z</time>
      </trkpt>
      <trkpt lat="61.299723857111" lon="12.245380985479">
        <ele>450.4</ele>
        <time>2020-01-01T16:34:02Z</time>
      </trkpt>
      <trkpt lat="61.299571474169" lon="12.245436138381">
        <ele>451.6</ele>
        <time>2020-01-01T16:34:06Z</time>
      </trkpt>
      <trkpt lat="61.299121869053" lon="12.245590030065">
        <ele>452.4</ele>
        <time>2020-01-01T16:34:17Z</time>
      </trkpt>
      <trkpt lat="61.298653237024" lon="12.245706287018">
        <ele>452.2</ele>
        <time>2020-01-01T16:34:28Z</time>
      </trkpt>
      <trkpt lat="61.298196507293" lon="12.245903177849">
        <ele>452.6</ele>
        <time>2020-01-01T16:34:41Z</time>
      </trkpt>
      <trkpt lat="61.298118220347" lon="12.245936286354">
        <ele>452.6</ele>
        <time>2020-01-01T16:34:43Z</time>
      </trkpt>
      <trkpt lat="61.297821417268" lon="12.246040473371">
        <ele>451.4</ele>
        <time>2020-01-01T16:34:50Z</time>
      </trkpt>
      <trkpt lat="61.297377176568" lon="12.246220013669">
        <ele>451.2</ele>
        <time>2020-01-01T16:35:02Z</time>
      </trkpt>
      <trkpt lat="61.296989094598" lon="12.246358147381">
        <ele>452.8</ele>
        <time>2020-01-01T16:35:14Z</time>
      </trkpt>
      <trkpt lat="61.29686236027" lon="12.246396955578">
        <ele>453.8</ele>
        <time>2020-01-01T16:35:18Z</time>
      </trkpt>
      <trkpt lat="61.296408564204" lon="12.246531317435">
        <ele>454.4</ele>
        <time>2020-01-01T16:35:32Z</time>
      </trkpt>
      <trkpt lat="61.296045627934" lon="12.246606167802">
        <ele>454.8</ele>
        <time>2020-01-01T16:35:43Z</time>
      </trkpt>
      <trkpt lat="61.295848485646" lon="12.246668780595">
        <ele>456</ele>
        <time>2020-01-01T16:35:49Z</time>
      </trkpt>
      <trkpt lat="61.295577834095" lon="12.246737428356">
        <ele>457</ele>
        <time>2020-01-01T16:35:58Z</time>
      </trkpt>
      <trkpt lat="61.295095204293" lon="12.246841615373">
        <ele>457.2</ele>
        <time>2020-01-01T16:36:12Z</time>
      </trkpt>
      <trkpt lat="61.29463948039" lon="12.246995842333">
        <ele>456.8</ele>
        <time>2020-01-01T16:36:23Z</time>
      </trkpt>
      <trkpt lat="61.294195826423" lon="12.247209413145">
        <ele>457.6</ele>
        <time>2020-01-01T16:36:34Z</time>
      </trkpt>
      <trkpt lat="61.29409800965" lon="12.247252663749">
        <ele>458</ele>
        <time>2020-01-01T16:36:37Z</time>
      </trkpt>
      <trkpt lat="61.293696181364" lon="12.247363137191">
        <ele>459.4</ele>
        <time>2020-01-01T16:36:51Z</time>
      </trkpt>
      <trkpt lat="61.293578583307" lon="12.247414434419">
        <ele>460.4</ele>
        <time>2020-01-01T16:36:55Z</time>
      </trkpt>
      <trkpt lat="61.293258059451" lon="12.247526500422">
        <ele>461.6</ele>
        <time>2020-01-01T16:37:05Z</time>
      </trkpt>
      <trkpt lat="61.293129481105" lon="12.247588945577">
        <ele>462.2</ele>
        <time>2020-01-01T16:37:09Z</time>
      </trkpt>
      <trkpt lat="61.292993191411" lon="12.247649965809">
        <ele>462.6</ele>
        <time>2020-01-01T16:37:13Z</time>
      </trkpt>
      <trkpt lat="61.292524978477" lon="12.24776974316">
        <ele>463.2</ele>
        <time>2020-01-01T16:37:27Z</time>
      </trkpt>
      <trkpt lat="61.292210992503" lon="12.247784327666">
        <ele>462.6</ele>
        <time>2020-01-01T16:37:34Z</time>
      </trkpt>
      <trkpt lat="61.291746467605" lon="12.24775633212">
        <ele>463.6</ele>
        <time>2020-01-01T16:37:47Z</time>
      </trkpt>
      <trkpt lat="61.29168737521" lon="12.247773179739">
        <ele>463.6</ele>
        <time>2020-01-01T16:37:49Z</time>
      </trkpt>
      <trkpt lat="61.291476654244" lon="12.247830260478">
        <ele>464.6</ele>
        <time>2020-01-01T16:37:56Z</time>
      </trkpt>
      <trkpt lat="61.291051272819" lon="12.24815698694">
        <ele>465.2</ele>
        <time>2020-01-01T16:38:08Z</time>
      </trkpt>
      <trkpt lat="61.290585574455" lon="12.248495196605">
        <ele>465</ele>
        <time>2020-01-01T16:38:20Z</time>
      </trkpt>
      <trkpt lat="61.290547688267" lon="12.248522270142">
        <ele>465</ele>
        <time>2020-01-01T16:38:21Z</time>
      </trkpt>
      <trkpt lat="61.290123564127" lon="12.248842793998">
        <ele>465</ele>
        <time>2020-01-01T16:38:32Z</time>
      </trkpt>
      <trkpt lat="61.289748306464" lon="12.249157450524">
        <ele>465.8</ele>
        <time>2020-01-01T16:38:42Z</time>
      </trkpt>
      <trkpt lat="61.289299874814" lon="12.249470682127">
        <ele>465.8</ele>
        <time>2020-01-01T16:38:54Z</time>
      </trkpt>
      <trkpt lat="61.288856220847" lon="12.24986354178">
        <ele>465.4</ele>
        <time>2020-01-01T16:39:05Z</time>
      </trkpt>
      <trkpt lat="61.288730157071" lon="12.249992790678">
        <ele>464.4</ele>
        <time>2020-01-01T16:39:08Z</time>
      </trkpt>
      <trkpt lat="61.28847962208" lon="12.250293281793">
        <ele>464.2</ele>
        <time>2020-01-01T16:39:14Z</time>
      </trkpt>
      <trkpt lat="61.288207294149" lon="12.250684800342">
        <ele>464.8</ele>
        <time>2020-01-01T16:39:21Z</time>
      </trkpt>
      <trkpt lat="61.287920800807" lon="12.251132058526">
        <ele>463.2</ele>
        <time>2020-01-01T16:39:28Z</time>
      </trkpt>
      <trkpt lat="61.287804124759" lon="12.251324926045">
        <ele>462</ele>
        <time>2020-01-01T16:39:31Z</time>
      </trkpt>
      <trkpt lat="61.287724664347" lon="12.251464065585">
        <ele>460.2</ele>
        <time>2020-01-01T16:39:33Z</time>
      </trkpt>
      <trkpt lat="61.287633385456" lon="12.251605803514">
        <ele>459.2</ele>
        <time>2020-01-01T16:39:35Z</time>
      </trkpt>
      <trkpt lat="61.287493826821" lon="12.251812584987">
        <ele>457.8</ele>
        <time>2020-01-01T16:39:38Z</time>
      </trkpt>
      <trkpt lat="61.287092501449" lon="12.252374926658">
        <ele>458</ele>
        <time>2020-01-01T16:39:48Z</time>
      </trkpt>
      <trkpt lat="61.287050591949" lon="12.252432007397">
        <ele>458.4</ele>
        <time>2020-01-01T16:39:49Z</time>
      </trkpt>
      <trkpt lat="61.286599226634" lon="12.252800308083">
        <ele>458.2</ele>
        <time>2020-01-01T16:40:00Z</time>
      </trkpt>
      <trkpt lat="61.28624668392" lon="12.25289862777">
        <ele>459</ele>
        <time>2020-01-01T16:40:09Z</time>
      </trkpt>
      <trkpt lat="61.285771262552" lon="12.253152096426">
        <ele>458.8</ele>
        <time>2020-01-01T16:40:21Z</time>
      </trkpt>
      <trkpt lat="61.285320400151" lon="12.253462645821">
        <ele>459.8</ele>
        <time>2020-01-01T16:40:32Z</time>
      </trkpt>
      <trkpt lat="61.285277568642" lon="12.253487791521">
        <ele>460</ele>
        <time>2020-01-01T16:40:33Z</time>
      </trkpt>
      <trkpt lat="61.284832825028" lon="12.253832790525">
        <ele>460.4</ele>
        <time>2020-01-01T16:40:45Z</time>
      </trkpt>
      <trkpt lat="61.284376598211" lon="12.254159936082">
        <ele>460.2</ele>
        <time>2020-01-01T16:40:56Z</time>
      </trkpt>
      <trkpt lat="61.284161853933" lon="12.254283736745">
        <ele>460.2</ele>
        <time>2020-01-01T16:41:01Z</time>
      </trkpt>
      <trkpt lat="61.283986420766" lon="12.254396808576">
        <ele>459.6</ele>
        <time>2020-01-01T16:41:05Z</time>
      </trkpt>
      <trkpt lat="61.283902601766" lon="12.25444257375">
        <ele>458.6</ele>
        <time>2020-01-01T16:41:07Z</time>
      </trkpt>
      <trkpt lat="61.283823225173" lon="12.254483980336">
        <ele>457.2</ele>
        <time>2020-01-01T16:41:09Z</time>
      </trkpt>
      <trkpt lat="61.283446961682" lon="12.254732084576">
        <ele>458.4</ele>
        <time>2020-01-01T16:41:17Z</time>
      </trkpt>
      <trkpt lat="61.283032309089" lon="12.255016985357">
        <ele>459.6</ele>
        <time>2020-01-01T16:41:28Z</time>
      </trkpt>
      <trkpt lat="61.282597791393" lon="12.255292917505">
        <ele>460</ele>
        <time>2020-01-01T16:41:40Z</time>
      </trkpt>
      <trkpt lat="61.282162519326" lon="12.255596929018">
        <ele>460.4</ele>
        <time>2020-01-01T16:41:52Z</time>
      </trkpt>
      <trkpt lat="61.282125974242" lon="12.25560849604">
        <ele>460</ele>
        <time>2020-01-01T16:41:53Z</time>
      </trkpt>
      <trkpt lat="61.282005861615" lon="12.255669013358">
        <ele>460.6</ele>
        <time>2020-01-01T16:41:56Z</time>
      </trkpt>
      <trkpt lat="61.281550053893" lon="12.256049048704">
        <ele>459.8</ele>
        <time>2020-01-01T16:42:07Z</time>
      </trkpt>
      <trkpt lat="61.281474365336" lon="12.256109649841">
        <ele>459.6</ele>
        <time>2020-01-01T16:42:09Z</time>
      </trkpt>
      <trkpt lat="61.281427259058" lon="12.256162791087">
        <ele>459.4</ele>
        <time>2020-01-01T16:42:10Z</time>
      </trkpt>
      <trkpt lat="61.281066166806" lon="12.256758995634">
        <ele>459.2</ele>
        <time>2020-01-01T16:42:20Z</time>
      </trkpt>
      <trkpt lat="61.280792078676" lon="12.257278841072">
        <ele>459</ele>
        <time>2020-01-01T16:42:29Z</time>
      </trkpt>
      <trkpt lat="61.280338869343" lon="12.257606573362">
        <ele>459.4</ele>
        <time>2020-01-01T16:42:42Z</time>
      </trkpt>
      <trkpt lat="61.279957576712" lon="12.25788585827">
        <ele>460.8</ele>
        <time>2020-01-01T16:42:54Z</time>
      </trkpt>
      <trkpt lat="61.279629006232" lon="12.258121054384">
        <ele>461.8</ele>
        <time>2020-01-01T16:43:04Z</time>
      </trkpt>
      <trkpt lat="61.27937184954" lon="12.258341163078">
        <ele>463</ele>
        <time>2020-01-01T16:43:12Z</time>
      </trkpt>
      <trkpt lat="61.278952083988" lon="12.258743578097">
        <ele>462.2</ele>
        <time>2020-01-01T16:43:24Z</time>
      </trkpt>
      <trkpt lat="61.278574563212" lon="12.259059659546">
        <ele>461.8</ele>
        <time>2020-01-01T16:43:33Z</time>
      </trkpt>
      <trkpt lat="61.278492252954" lon="12.259125373642">
        <ele>461.2</ele>
        <time>2020-01-01T16:43:35Z</time>
      </trkpt>
      <trkpt lat="61.278315311045" lon="12.259285970846">
        <ele>460.8</ele>
        <time>2020-01-01T16:43:39Z</time>
      </trkpt>
      <trkpt lat="61.277948435282" lon="12.259504822255">
        <ele>461.8</ele>
        <time>2020-01-01T16:43:48Z</time>
      </trkpt>
      <trkpt lat="61.277731679348" lon="12.259612697308">
        <ele>462.8</ele>
        <time>2020-01-01T16:43:54Z</time>
      </trkpt>
      <trkpt lat="61.277659259732" lon="12.259650583496">
        <ele>462.8</ele>
        <time>2020-01-01T16:43:56Z</time>
      </trkpt>
      <trkpt lat="61.277185347106" lon="12.259858454616">
        <ele>463</ele>
        <time>2020-01-01T16:44:08Z</time>
      </trkpt>
      <trkpt lat="61.276742112234" lon="12.260012430119">
        <ele>463.6</ele>
        <time>2020-01-01T16:44:20Z</time>
      </trkpt>
      <trkpt lat="61.276557794253" lon="12.260091219979">
        <ele>464</ele>
        <time>2020-01-01T16:44:25Z</time>
      </trkpt>
      <trkpt lat="61.276111206621" lon="12.260321386953">
        <ele>463.4</ele>
        <time>2020-01-01T16:44:35Z</time>
      </trkpt>
      <trkpt lat="61.275649699207" lon="12.260535879774">
        <ele>464</ele>
        <time>2020-01-01T16:44:46Z</time>
      </trkpt>
      <trkpt lat="61.275339485088" lon="12.260698069539">
        <ele>465</ele>
        <time>2020-01-01T16:44:56Z</time>
      </trkpt>
      <trkpt lat="61.275163129912" lon="12.260771243526">
        <ele>466.2</ele>
        <time>2020-01-01T16:45:02Z</time>
      </trkpt>
      <trkpt lat="61.274717799565" lon="12.260919184061">
        <ele>466.4</ele>
        <time>2020-01-01T16:45:14Z</time>
      </trkpt>
      <trkpt lat="61.274275570521" lon="12.26107768579">
        <ele>466.2</ele>
        <time>2020-01-01T16:45:25Z</time>
      </trkpt>
      <trkpt lat="61.273797466945" lon="12.26129896795">
        <ele>466.8</ele>
        <time>2020-01-01T16:45:38Z</time>
      </trkpt>
      <trkpt lat="61.273615495896" lon="12.261390749755">
        <ele>467.2</ele>
        <time>2020-01-01T16:45:43Z</time>
      </trkpt>
      <trkpt lat="61.273210650126" lon="12.261497954256">
        <ele>468.4</ele>
        <time>2020-01-01T16:45:57Z</time>
      </trkpt>
      <trkpt lat="61.273103697082" lon="12.261522680861">
        <ele>469.6</ele>
        <time>2020-01-01T16:46:01Z</time>
      </trkpt>
      <trkpt lat="61.272936981091" lon="12.261565428551">
        <ele>470.6</ele>
        <time>2020-01-01T16:46:06Z</time>
      </trkpt>
      <trkpt lat="61.272585528024" lon="12.261714542552">
        <ele>471.6</ele>
        <time>2020-01-01T16:46:18Z</time>
      </trkpt>
      <trkpt lat="61.272363575312" lon="12.261804815615">
        <ele>472.8</ele>
        <time>2020-01-01T16:46:27Z</time>
      </trkpt>
      <trkpt lat="61.272168863775" lon="12.261903470578">
        <ele>474</ele>
        <time>2020-01-01T16:46:34Z</time>
      </trkpt>
      <trkpt lat="61.271847753186" lon="12.262022577377">
        <ele>475</ele>
        <time>2020-01-01T16:46:44Z</time>
      </trkpt>
      <trkpt lat="61.271409212178" lon="12.262130117154">
        <ele>476</ele>
        <time>2020-01-01T16:46:57Z</time>
      </trkpt>
      <trkpt lat="61.270965390573" lon="12.262260707156">
        <ele>476.4</ele>
        <time>2020-01-01T16:47:09Z</time>
      </trkpt>
      <trkpt lat="61.270767326276" lon="12.262310830918">
        <ele>477</ele>
        <time>2020-01-01T16:47:16Z</time>
      </trkpt>
      <trkpt lat="61.270617625542" lon="12.262331031297">
        <ele>478</ele>
        <time>2020-01-01T16:47:21Z</time>
      </trkpt>
      <trkpt lat="61.270161231087" lon="12.262389285502">
        <ele>478.6</ele>
        <time>2020-01-01T16:47:33Z</time>
      </trkpt>
      <trkpt lat="61.269716906568" lon="12.262540159702">
        <ele>479</ele>
        <time>2020-01-01T16:47:45Z</time>
      </trkpt>
      <trkpt lat="61.269528062361" lon="12.262627247643">
        <ele>479.2</ele>
        <time>2020-01-01T16:47:52Z</time>
      </trkpt>
      <trkpt lat="61.269358245067" lon="12.262697320327">
        <ele>480.4</ele>
        <time>2020-01-01T16:47:58Z</time>
      </trkpt>
      <trkpt lat="61.269083402566" lon="12.262783234802">
        <ele>481.6</ele>
        <time>2020-01-01T16:48:06Z</time>
      </trkpt>
      <trkpt lat="61.2687972445" lon="12.262753814333">
        <ele>482.6</ele>
        <time>2020-01-01T16:48:15Z</time>
      </trkpt>
      <trkpt lat="61.268539584894" lon="12.262685501848">
        <ele>483.8</ele>
        <time>2020-01-01T16:48:24Z</time>
      </trkpt>
      <trkpt lat="61.268452832229" lon="12.26266018851">
        <ele>484.8</ele>
        <time>2020-01-01T16:48:27Z</time>
      </trkpt>
      <trkpt lat="61.268289804274" lon="12.262613417508">
        <ele>485.8</ele>
        <time>2020-01-01T16:48:33Z</time>
      </trkpt>
      <trkpt lat="61.268144378309" lon="12.262543177186">
        <ele>487</ele>
        <time>2020-01-01T16:48:38Z</time>
      </trkpt>
      <trkpt lat="61.267690330786" lon="12.262425327672">
        <ele>486.8</ele>
        <time>2020-01-01T16:48:51Z</time>
      </trkpt>
      <trkpt lat="61.267233517236" lon="12.262342095405">
        <ele>487.6</ele>
        <time>2020-01-01T16:49:03Z</time>
      </trkpt>
      <trkpt lat="61.266783409206" lon="12.262465057878">
        <ele>487.6</ele>
        <time>2020-01-01T16:49:16Z</time>
      </trkpt>
      <trkpt lat="61.266704870803" lon="12.262506045369">
        <ele>488.4</ele>
        <time>2020-01-01T16:49:19Z</time>
      </trkpt>
      <trkpt lat="61.266609652419" lon="12.262547619593">
        <ele>489.4</ele>
        <time>2020-01-01T16:49:23Z</time>
      </trkpt>
      <trkpt lat="61.266481828444" lon="12.262620123028">
        <ele>490.6</ele>
        <time>2020-01-01T16:49:29Z</time>
      </trkpt>
      <trkpt lat="61.266377557608" lon="12.262674940654">
        <ele>491.6</ele>
        <time>2020-01-01T16:49:34Z</time>
      </trkpt>
      <trkpt lat="61.2662659107" lon="12.262762782966">
        <ele>492.6</ele>
        <time>2020-01-01T16:49:39Z</time>
      </trkpt>
      <trkpt lat="61.266200112785" lon="12.262823887017">
        <ele>493.8</ele>
        <time>2020-01-01T16:49:42Z</time>
      </trkpt>
      <trkpt lat="61.266133979594" lon="12.262904269438">
        <ele>495</ele>
        <time>2020-01-01T16:49:45Z</time>
      </trkpt>
      <trkpt lat="61.265992325484" lon="12.263119432811">
        <ele>496</ele>
        <time>2020-01-01T16:49:51Z</time>
      </trkpt>
      <trkpt lat="61.265716309517" lon="12.263666435605">
        <ele>494.2</ele>
        <time>2020-01-01T16:50:01Z</time>
      </trkpt>
      <trkpt lat="61.265644057539" lon="12.26380180329">
        <ele>492.6</ele>
        <time>2020-01-01T16:50:03Z</time>
      </trkpt>
      <trkpt lat="61.265517826125" lon="12.264035742119">
        <ele>491.2</ele>
        <time>2020-01-01T16:50:06Z</time>
      </trkpt>
      <trkpt lat="61.265424200302" lon="12.264202961024">
        <ele>489.6</ele>
        <time>2020-01-01T16:50:08Z</time>
      </trkpt>
      <trkpt lat="61.265204510703" lon="12.264631443752">
        <ele>491</ele>
        <time>2020-01-01T16:50:13Z</time>
      </trkpt>
      <trkpt lat="61.265136784951" lon="12.264769326007">
        <ele>492.8</ele>
        <time>2020-01-01T16:50:15Z</time>
      </trkpt>
      <trkpt lat="61.265014576849" lon="12.264986752493">
        <ele>494</ele>
        <time>2020-01-01T16:50:19Z</time>
      </trkpt>
      <trkpt lat="61.26457611966" lon="12.265317753724">
        <ele>494.2</ele>
        <time>2020-01-01T16:50:30Z</time>
      </trkpt>
      <trkpt lat="61.264115701893" lon="12.265543059196">
        <ele>493.4</ele>
        <time>2020-01-01T16:50:41Z</time>
      </trkpt>
      <trkpt lat="61.263648746244" lon="12.265599972297">
        <ele>494.4</ele>
        <time>2020-01-01T16:50:54Z</time>
      </trkpt>
      <trkpt lat="61.263485969746" lon="12.265554207123">
        <ele>495</ele>
        <time>2020-01-01T16:50:59Z</time>
      </trkpt>
      <trkpt lat="61.263159997655" lon="12.265426466967">
        <ele>496.2</ele>
        <time>2020-01-01T16:51:09Z</time>
      </trkpt>
      <trkpt lat="61.263003423763" lon="12.265372236074">
        <ele>497.4</ele>
        <time>2020-01-01T16:51:15Z</time>
      </trkpt>
      <trkpt lat="61.262876354159" lon="12.265339714302">
        <ele>498.4</ele>
        <time>2020-01-01T16:51:20Z</time>
      </trkpt>
      <trkpt lat="61.26273964537" lon="12.265358154482">
        <ele>499.6</ele>
        <time>2020-01-01T16:51:25Z</time>
      </trkpt>
      <trkpt lat="61.262529343499" lon="12.265468376467">
        <ele>501.2</ele>
        <time>2020-01-01T16:51:34Z</time>
      </trkpt>
      <trkpt lat="61.262372685788" lon="12.265574072226">
        <ele>502.2</ele>
        <time>2020-01-01T16:51:39Z</time>
      </trkpt>
      <trkpt lat="61.261936407893" lon="12.265820416267">
        <ele>502</ele>
        <time>2020-01-01T16:51:51Z</time>
      </trkpt>
      <trkpt lat="61.261666594532" lon="12.265803652467">
        <ele>503.2</ele>
        <time>2020-01-01T16:52:01Z</time>
      </trkpt>
      <trkpt lat="61.261613872381" lon="12.26578663721">
        <ele>504.2</ele>
        <time>2020-01-01T16:52:03Z</time>
      </trkpt>
      <trkpt lat="61.261451095883" lon="12.265634841001">
        <ele>505.2</ele>
        <time>2020-01-01T16:52:10Z</time>
      </trkpt>
      <trkpt lat="61.261310196144" lon="12.265264025745">
        <ele>506.4</ele>
        <time>2020-01-01T16:52:18Z</time>
      </trkpt>
      <trkpt lat="61.261237273614" lon="12.264984405561">
        <ele>507.4</ele>
        <time>2020-01-01T16:52:24Z</time>
      </trkpt>
      <trkpt lat="61.261217408511" lon="12.264577631954">
        <ele>508.4</ele>
        <time>2020-01-01T16:52:32Z</time>
      </trkpt>
      <trkpt lat="61.261233585578" lon="12.264392056688">
        <ele>509.6</ele>
        <time>2020-01-01T16:52:36Z</time>
      </trkpt>
      <trkpt lat="61.261253702138" lon="12.26413372653">
        <ele>510.6</ele>
        <time>2020-01-01T16:52:41Z</time>
      </trkpt>
      <trkpt lat="61.261283038788" lon="12.263890064697">
        <ele>511.8</ele>
        <time>2020-01-01T16:52:46Z</time>
      </trkpt>
      <trkpt lat="61.261299383493" lon="12.263466108195">
        <ele>513</ele>
        <time>2020-01-01T16:52:54Z</time>
      </trkpt>
      <trkpt lat="61.261288403204" lon="12.263254884315">
        <ele>514.2</ele>
        <time>2020-01-01T16:52:58Z</time>
      </trkpt>
      <trkpt lat="61.261271555585" lon="12.263007953541">
        <ele>514.8</ele>
        <time>2020-01-01T16:53:03Z</time>
      </trkpt>
      <trkpt lat="61.261263844237" lon="12.262914411537">
        <ele>515.4</ele>
        <time>2020-01-01T16:53:05Z</time>
      </trkpt>
      <trkpt lat="61.261191843716" lon="12.262517780029">
        <ele>516.4</ele>
        <time>2020-01-01T16:53:13Z</time>
      </trkpt>
      <trkpt lat="61.26115462808" lon="12.262258527862">
        <ele>517.6</ele>
        <time>2020-01-01T16:53:18Z</time>
      </trkpt>
      <trkpt lat="61.261107857078" lon="12.261859884698">
        <ele>518.6</ele>
        <time>2020-01-01T16:53:26Z</time>
      </trkpt>
      <trkpt lat="61.261066282854" lon="12.261596776857">
        <ele>519.8</ele>
        <time>2020-01-01T16:53:32Z</time>
      </trkpt>
      <trkpt lat="61.26104650157" lon="12.261409776668">
        <ele>520.8</ele>
        <time>2020-01-01T16:53:36Z</time>
      </trkpt>
      <trkpt lat="61.261010291762" lon="12.261108531182">
        <ele>522</ele>
        <time>2020-01-01T16:53:43Z</time>
      </trkpt>
      <trkpt lat="61.260987073899" lon="12.260878531846">
        <ele>523.2</ele>
        <time>2020-01-01T16:53:48Z</time>
      </trkpt>
      <trkpt lat="61.260965113321" lon="12.260664122844">
        <ele>524.6</ele>
        <time>2020-01-01T16:53:53Z</time>
      </trkpt>
      <trkpt lat="61.260919348147" lon="12.260335217088">
        <ele>525.8</ele>
        <time>2020-01-01T16:54:01Z</time>
      </trkpt>
      <trkpt lat="61.260880791407" lon="12.260064481718">
        <ele>527</ele>
        <time>2020-01-01T16:54:07Z</time>
      </trkpt>
      <trkpt lat="61.26080175009" lon="12.259598531897">
        <ele>528.2</ele>
        <time>2020-01-01T16:54:16Z</time>
      </trkpt>
      <trkpt lat="61.260762941893" lon="12.259194356679">
        <ele>529.2</ele>
        <time>2020-01-01T16:54:24Z</time>
      </trkpt>
      <trkpt lat="61.26077492801" lon="12.258825050165">
        <ele>530.6</ele>
        <time>2020-01-01T16:54:31Z</time>
      </trkpt>
      <trkpt lat="61.26082689579" lon="12.258427161372">
        <ele>531.6</ele>
        <time>2020-01-01T16:54:39Z</time>
      </trkpt>
      <trkpt lat="61.260918845233" lon="12.258059782695">
        <ele>532.6</ele>
        <time>2020-01-01T16:54:46Z</time>
      </trkpt>
      <trkpt lat="61.261050273425" lon="12.25764948869">
        <ele>533.6</ele>
        <time>2020-01-01T16:54:54Z</time>
      </trkpt>
      <trkpt lat="61.261184383825" lon="12.257223771989">
        <ele>534.6</ele>
        <time>2020-01-01T16:55:02Z</time>
      </trkpt>
      <trkpt lat="61.261357302422" lon="12.25664701345">
        <ele>535.8</ele>
        <time>2020-01-01T16:55:12Z</time>
      </trkpt>
      <trkpt lat="61.261558468022" lon="12.25578367775">
        <ele>536.8</ele>
        <time>2020-01-01T16:55:26Z</time>
      </trkpt>
      <trkpt lat="61.261593923459" lon="12.25546600374">
        <ele>537.8</ele>
        <time>2020-01-01T16:55:31Z</time>
      </trkpt>
      <trkpt lat="61.261644214859" lon="12.254963760292">
        <ele>539.2</ele>
        <time>2020-01-01T16:55:39Z</time>
      </trkpt>
      <trkpt lat="61.261642873755" lon="12.254505102724">
        <ele>540.4</ele>
        <time>2020-01-01T16:55:48Z</time>
      </trkpt>
      <trkpt lat="61.261634324217" lon="12.254344421701">
        <ele>541.4</ele>
        <time>2020-01-01T16:55:51Z</time>
      </trkpt>
      <trkpt lat="61.261581099152" lon="12.253946532908">
        <ele>542.4</ele>
        <time>2020-01-01T16:55:58Z</time>
      </trkpt>
      <trkpt lat="61.26147397847" lon="12.253398272829">
        <ele>543.6</ele>
        <time>2020-01-01T16:56:08Z</time>
      </trkpt>
      <trkpt lat="61.261401642673" lon="12.253004742624">
        <ele>544.6</ele>
        <time>2020-01-01T16:56:16Z</time>
      </trkpt>
      <trkpt lat="61.261357972974" lon="12.252688661175">
        <ele>545.8</ele>
        <time>2020-01-01T16:56:22Z</time>
      </trkpt>
      <trkpt lat="61.261328552505" lon="12.252309212562">
        <ele>546.8</ele>
        <time>2020-01-01T16:56:29Z</time>
      </trkpt>
      <trkpt lat="61.261339197518" lon="12.252019282641">
        <ele>547.8</ele>
        <time>2020-01-01T16:56:34Z</time>
      </trkpt>
      <trkpt lat="61.261357302422" lon="12.251860529455">
        <ele>548.2</ele>
        <time>2020-01-01T16:56:37Z</time>
      </trkpt>
      <trkpt lat="61.261455203014" lon="12.251520475772">
        <ele>548.8</ele>
        <time>2020-01-01T16:56:44Z</time>
      </trkpt>
      <trkpt lat="61.261607502137" lon="12.251152594181">
        <ele>549.8</ele>
        <time>2020-01-01T16:56:52Z</time>
      </trkpt>
      <trkpt lat="61.261971695692" lon="12.250573069615">
        <ele>550.8</ele>
        <time>2020-01-01T16:57:05Z</time>
      </trkpt>
      <trkpt lat="61.262004636559" lon="12.250465948933">
        <ele>551</ele>
        <time>2020-01-01T16:57:07Z</time>
      </trkpt>
      <trkpt lat="61.262074709243" lon="12.249909390773">
        <ele>552.2</ele>
        <time>2020-01-01T16:57:17Z</time>
      </trkpt>
      <trkpt lat="61.262103542979" lon="12.249642175801">
        <ele>553.2</ele>
        <time>2020-01-01T16:57:23Z</time>
      </trkpt>
      <trkpt lat="61.262278389413" lon="12.249358532305">
        <ele>554.2</ele>
        <time>2020-01-01T16:57:31Z</time>
      </trkpt>
      <trkpt lat="61.262514926631" lon="12.249068015651">
        <ele>555.4</ele>
        <time>2020-01-01T16:57:39Z</time>
      </trkpt>
      <trkpt lat="61.262716092231" lon="12.248694769644">
        <ele>556.6</ele>
        <time>2020-01-01T16:57:49Z</time>
      </trkpt>
      <trkpt lat="61.262835618125" lon="12.248486479429">
        <ele>557.6</ele>
        <time>2020-01-01T16:57:54Z</time>
      </trkpt>
      <trkpt lat="61.263106940228" lon="12.248019942875">
        <ele>558.8</ele>
        <time>2020-01-01T16:58:05Z</time>
      </trkpt>
      <trkpt lat="61.263153292135" lon="12.247704951073">
        <ele>559.8</ele>
        <time>2020-01-01T16:58:11Z</time>
      </trkpt>
      <trkpt lat="61.263321768325" lon="12.247160211392">
        <ele>561</ele>
        <time>2020-01-01T16:58:22Z</time>
      </trkpt>
      <trkpt lat="61.263527041056" lon="12.2469784918">
        <ele>562.2</ele>
        <time>2020-01-01T16:58:29Z</time>
      </trkpt>
      <trkpt lat="61.263839853564" lon="12.246930212056">
        <ele>562.2</ele>
        <time>2020-01-01T16:58:37Z</time>
      </trkpt>
      <trkpt lat="61.264082006655" lon="12.246808506868">
        <ele>561.8</ele>
        <time>2020-01-01T16:58:43Z</time>
      </trkpt>
      <trkpt lat="61.264486098054" lon="12.246263767187">
        <ele>562.8</ele>
        <time>2020-01-01T16:58:57Z</time>
      </trkpt>
      <trkpt lat="61.264935954627" lon="12.246093949893">
        <ele>562.8</ele>
        <time>2020-01-01T16:59:08Z</time>
      </trkpt>
      <trkpt lat="61.2654109569" lon="12.246120436697">
        <ele>562.2</ele>
        <time>2020-01-01T16:59:18Z</time>
      </trkpt>
      <trkpt lat="61.265900962774" lon="12.246081209405">
        <ele>561</ele>
        <time>2020-01-01T16:59:27Z</time>
      </trkpt>
      <trkpt lat="61.26595997135" lon="12.246072827505">
        <ele>560</ele>
        <time>2020-01-01T16:59:28Z</time>
      </trkpt>
      <trkpt lat="61.266016213899" lon="12.246053381497">
        <ele>559.6</ele>
        <time>2020-01-01T16:59:29Z</time>
      </trkpt>
      <trkpt lat="61.266065415652" lon="12.24602211701">
        <ele>559.2</ele>
        <time>2020-01-01T16:59:30Z</time>
      </trkpt>
      <trkpt lat="61.266150491937" lon="12.245942740417">
        <ele>559.2</ele>
        <time>2020-01-01T16:59:32Z</time>
      </trkpt>
      <trkpt lat="61.26637655178" lon="12.245586761124">
        <ele>560.2</ele>
        <time>2020-01-01T16:59:39Z</time>
      </trkpt>
      <trkpt lat="61.266434889804" lon="12.245484082849">
        <ele>560.8</ele>
        <time>2020-01-01T16:59:41Z</time>
      </trkpt>
      <trkpt lat="61.266537065165" lon="12.245272691331">
        <ele>561.4</ele>
        <time>2020-01-01T16:59:47Z</time>
      </trkpt>
      <trkpt lat="61.266527342161" lon="12.245262968327">
        <ele>561.4</ele>
        <time>2020-01-01T17:00:16Z</time>
      </trkpt>
      <trkpt lat="61.266499933348" lon="12.245285012724">
        <ele>561.2</ele>
        <time>2020-01-01T17:00:19Z</time>
      </trkpt>
      <trkpt lat="61.266468668861" lon="12.245338908341">
        <ele>561.2</ele>
        <time>2020-01-01T17:00:21Z</time>
      </trkpt>
      <trkpt lat="61.266084191108" lon="12.245998144776">
        <ele>560.8</ele>
        <time>2020-01-01T17:00:31Z</time>
      </trkpt>
      <trkpt lat="61.265974974951" lon="12.246068804193">
        <ele>560.2</ele>
        <time>2020-01-01T17:00:33Z</time>
      </trkpt>
      <trkpt lat="61.265507097293" lon="12.246073414238">
        <ele>561.2</ele>
        <time>2020-01-01T17:00:44Z</time>
      </trkpt>
      <trkpt lat="61.265281372726" lon="12.246145498578">
        <ele>562</ele>
        <time>2020-01-01T17:00:50Z</time>
      </trkpt>
      <trkpt lat="61.264854063464" lon="12.246112976806">
        <ele>563</ele>
        <time>2020-01-01T17:01:02Z</time>
      </trkpt>
      <trkpt lat="61.264548962304" lon="12.246273071096">
        <ele>563.6</ele>
        <time>2020-01-01T17:01:10Z</time>
      </trkpt>
      <trkpt lat="61.264249057922" lon="12.246556630773">
        <ele>564</ele>
        <time>2020-01-01T17:01:18Z</time>
      </trkpt>
      <trkpt lat="61.264130118761" lon="12.246733824139">
        <ele>562.4</ele>
        <time>2020-01-01T17:01:21Z</time>
      </trkpt>
      <trkpt lat="61.264080497913" lon="12.246788641765">
        <ele>561.2</ele>
        <time>2020-01-01T17:01:22Z</time>
      </trkpt>
      <trkpt lat="61.264035654748" lon="12.246821498813">
        <ele>560.6</ele>
        <time>2020-01-01T17:01:23Z</time>
      </trkpt>
      <trkpt lat="61.263931048636" lon="12.246880926484">
        <ele>560.2</ele>
        <time>2020-01-01T17:01:25Z</time>
      </trkpt>
      <trkpt lat="61.263835327338" lon="12.24691646574">
        <ele>561.4</ele>
        <time>2020-01-01T17:01:27Z</time>
      </trkpt>
      <trkpt lat="61.263487394669" lon="12.247033057969">
        <ele>562.6</ele>
        <time>2020-01-01T17:01:35Z</time>
      </trkpt>
      <trkpt lat="61.263445317531" lon="12.247064741551">
        <ele>562.6</ele>
        <time>2020-01-01T17:01:36Z</time>
      </trkpt>
      <trkpt lat="61.263187657925" lon="12.247450141313">
        <ele>561.4</ele>
        <time>2020-01-01T17:01:43Z</time>
      </trkpt>
      <trkpt lat="61.263140970742" lon="12.247615935295">
        <ele>560.8</ele>
        <time>2020-01-01T17:01:45Z</time>
      </trkpt>
      <trkpt lat="61.263082967994" lon="12.248047100231">
        <ele>560.6</ele>
        <time>2020-01-01T17:01:49Z</time>
      </trkpt>
      <trkpt lat="61.263010632197" lon="12.248261676871">
        <ele>560</ele>
        <time>2020-01-01T17:01:51Z</time>
      </trkpt>
      <trkpt lat="61.262815501565" lon="12.248548337851">
        <ele>559.6</ele>
        <time>2020-01-01T17:01:55Z</time>
      </trkpt>
      <trkpt lat="61.262728665081" lon="12.248658056922">
        <ele>559.2</ele>
        <time>2020-01-01T17:01:57Z</time>
      </trkpt>
      <trkpt lat="61.26269103035" lon="12.248717149317">
        <ele>559</ele>
        <time>2020-01-01T17:01:58Z</time>
      </trkpt>
      <trkpt lat="61.262653479438" lon="12.248784539793">
        <ele>558.6</ele>
        <time>2020-01-01T17:01:59Z</time>
      </trkpt>
      <trkpt lat="61.262567900239" lon="12.248964415367">
        <ele>558.2</ele>
        <time>2020-01-01T17:02:01Z</time>
      </trkpt>
      <trkpt lat="61.26251668683" lon="12.249047312358">
        <ele>557.6</ele>
        <time>2020-01-01T17:02:02Z</time>
      </trkpt>
      <trkpt lat="61.262467820353" lon="12.249108835504">
        <ele>557.2</ele>
        <time>2020-01-01T17:02:03Z</time>
      </trkpt>
      <trkpt lat="61.262367991924" lon="12.249220566231">
        <ele>556.8</ele>
        <time>2020-01-01T17:02:05Z</time>
      </trkpt>
      <trkpt lat="61.262321891474" lon="12.249277227875">
        <ele>556.6</ele>
        <time>2020-01-01T17:02:06Z</time>
      </trkpt>
      <trkpt lat="61.262107314834" lon="12.249580987931">
        <ele>556.2</ele>
        <time>2020-01-01T17:02:11Z</time>
      </trkpt>
      <trkpt lat="61.262065572972" lon="12.249806041946">
        <ele>555.8</ele>
        <time>2020-01-01T17:02:13Z</time>
      </trkpt>
      <trkpt lat="61.26205484414" lon="12.250055654928">
        <ele>555.6</ele>
        <time>2020-01-01T17:02:15Z</time>
      </trkpt>
      <trkpt lat="61.262037828883" lon="12.250354134387">
        <ele>555.2</ele>
        <time>2020-01-01T17:02:17Z</time>
      </trkpt>
      <trkpt lat="61.261983849447" lon="12.250612213088">
        <ele>554.8</ele>
        <time>2020-01-01T17:02:19Z</time>
      </trkpt>
      <trkpt lat="61.261956356815" lon="12.250724027634">
        <ele>554.4</ele>
        <time>2020-01-01T17:02:20Z</time>
      </trkpt>
      <trkpt lat="61.261910004908" lon="12.25081907838">
        <ele>554.2</ele>
        <time>2020-01-01T17:02:21Z</time>
      </trkpt>
      <trkpt lat="61.261802800407" lon="12.250960061938">
        <ele>553.2</ele>
        <time>2020-01-01T17:02:23Z</time>
      </trkpt>
      <trkpt lat="61.261659386098" lon="12.251152929457">
        <ele>552</ele>
        <time>2020-01-01T17:02:26Z</time>
      </trkpt>
      <trkpt lat="61.261618650064" lon="12.251223840331">
        <ele>551.8</ele>
        <time>2020-01-01T17:02:27Z</time>
      </trkpt>
      <trkpt lat="61.261408012917" lon="12.251757934999">
        <ele>550.8</ele>
        <time>2020-01-01T17:02:33Z</time>
      </trkpt>
      <trkpt lat="61.261333916921" lon="12.252076028104">
        <ele>550.2</ele>
        <time>2020-01-01T17:02:36Z</time>
      </trkpt>
      <trkpt lat="61.261313297447" lon="12.252312900598">
        <ele>549.8</ele>
        <time>2020-01-01T17:02:38Z</time>
      </trkpt>
      <trkpt lat="61.261314638551" lon="12.252427313533">
        <ele>549.6</ele>
        <time>2020-01-01T17:02:39Z</time>
      </trkpt>
      <trkpt lat="61.261364259399" lon="12.252908183136">
        <ele>547.8</ele>
        <time>2020-01-01T17:02:43Z</time>
      </trkpt>
      <trkpt lat="61.261383537769" lon="12.253037264396">
        <ele>546.2</ele>
        <time>2020-01-01T17:02:44Z</time>
      </trkpt>
      <trkpt lat="61.261407929098" lon="12.253172212986">
        <ele>544.6</ele>
        <time>2020-01-01T17:02:45Z</time>
      </trkpt>
      <trkpt lat="61.261455203014" lon="12.253446217297">
        <ele>543</ele>
        <time>2020-01-01T17:02:47Z</time>
      </trkpt>
      <trkpt lat="61.261510188278" lon="12.253738745607">
        <ele>541.6</ele>
        <time>2020-01-01T17:02:49Z</time>
      </trkpt>
      <trkpt lat="61.261563078067" lon="12.25404275712">
        <ele>540.4</ele>
        <time>2020-01-01T17:02:51Z</time>
      </trkpt>
      <trkpt lat="61.261612447458" lon="12.254490685856">
        <ele>539</ele>
        <time>2020-01-01T17:02:54Z</time>
      </trkpt>
      <trkpt lat="61.261618566245" lon="12.254992007295">
        <ele>537.4</ele>
        <time>2020-01-01T17:02:57Z</time>
      </trkpt>
      <trkpt lat="61.261603227368" lon="12.255351339348">
        <ele>535.8</ele>
        <time>2020-01-01T17:02:59Z</time>
      </trkpt>
      <trkpt lat="61.261570454139" lon="12.255683262588">
        <ele>534.6</ele>
        <time>2020-01-01T17:03:01Z</time>
      </trkpt>
      <trkpt lat="61.261506332604" lon="12.256157929585">
        <ele>533.4</ele>
        <time>2020-01-01T17:03:04Z</time>
      </trkpt>
      <trkpt lat="61.261351351273" lon="12.25670736313">
        <ele>532.2</ele>
        <time>2020-01-01T17:03:08Z</time>
      </trkpt>
      <trkpt lat="61.261062510999" lon="12.257558628894">
        <ele>531.8</ele>
        <time>2020-01-01T17:03:15Z</time>
      </trkpt>
      <trkpt lat="61.26094172782" lon="12.257940424439">
        <ele>531.2</ele>
        <time>2020-01-01T17:03:18Z</time>
      </trkpt>
      <trkpt lat="61.260829997093" lon="12.258481392265">
        <ele>531.4</ele>
        <time>2020-01-01T17:03:22Z</time>
      </trkpt>
      <trkpt lat="61.260785573023" lon="12.258939714557">
        <ele>530.2</ele>
        <time>2020-01-01T17:03:25Z</time>
      </trkpt>
      <trkpt lat="61.260785405385" lon="12.259099389752">
        <ele>529.6</ele>
        <time>2020-01-01T17:03:26Z</time>
      </trkpt>
      <trkpt lat="61.260795379846" lon="12.259435252485">
        <ele>528.4</ele>
        <time>2020-01-01T17:03:28Z</time>
      </trkpt>
      <trkpt lat="61.260894956818" lon="12.260289032819">
        <ele>527</ele>
        <time>2020-01-01T17:03:33Z</time>
      </trkpt>
      <trkpt lat="61.260936279585" lon="12.26064350337">
        <ele>525.8</ele>
        <time>2020-01-01T17:03:35Z</time>
      </trkpt>
      <trkpt lat="61.260976596524" lon="12.261021191784">
        <ele>524</ele>
        <time>2020-01-01T17:03:37Z</time>
      </trkpt>
      <trkpt lat="61.260996713084" lon="12.261224536678">
        <ele>523</ele>
        <time>2020-01-01T17:03:38Z</time>
      </trkpt>
      <trkpt lat="61.261020098585" lon="12.261412458876">
        <ele>522</ele>
        <time>2020-01-01T17:03:39Z</time>
      </trkpt>
      <trkpt lat="61.261047758855" lon="12.261609852621">
        <ele>520.8</ele>
        <time>2020-01-01T17:03:40Z</time>
      </trkpt>
      <trkpt lat="61.261107186526" lon="12.262034144399">
        <ele>519</ele>
        <time>2020-01-01T17:03:42Z</time>
      </trkpt>
      <trkpt lat="61.261167452387" lon="12.262475451434">
        <ele>517</ele>
        <time>2020-01-01T17:03:44Z</time>
      </trkpt>
      <trkpt lat="61.261198046322" lon="12.262696314499">
        <ele>515.8</ele>
        <time>2020-01-01T17:03:45Z</time>
      </trkpt>
      <trkpt lat="61.261230484275" lon="12.262917345202">
        <ele>514.8</ele>
        <time>2020-01-01T17:03:46Z</time>
      </trkpt>
      <trkpt lat="61.261252612491" lon="12.263135693697">
        <ele>514</ele>
        <time>2020-01-01T17:03:47Z</time>
      </trkpt>
      <trkpt lat="61.261265604436" lon="12.263361502083">
        <ele>513.2</ele>
        <time>2020-01-01T17:03:48Z</time>
      </trkpt>
      <trkpt lat="61.261265436798" lon="12.26380767062">
        <ele>511.6</ele>
        <time>2020-01-01T17:03:50Z</time>
      </trkpt>
      <trkpt lat="61.261224868402" lon="12.264252917148">
        <ele>509.6</ele>
        <time>2020-01-01T17:03:52Z</time>
      </trkpt>
      <trkpt lat="61.261218581977" lon="12.264659104022">
        <ele>508.2</ele>
        <time>2020-01-01T17:03:54Z</time>
      </trkpt>
      <trkpt lat="61.261275662716" lon="12.265107032758">
        <ele>504.4</ele>
        <time>2020-01-01T17:03:56Z</time>
      </trkpt>
      <trkpt lat="61.261322517537" lon="12.265297637164">
        <ele>503.2</ele>
        <time>2020-01-01T17:03:57Z</time>
      </trkpt>
      <trkpt lat="61.261384711235" lon="12.265480614041">
        <ele>502.6</ele>
        <time>2020-01-01T17:03:58Z</time>
      </trkpt>
      <trkpt lat="61.261460148335" lon="12.265654454647">
        <ele>501.4</ele>
        <time>2020-01-01T17:03:59Z</time>
      </trkpt>
      <trkpt lat="61.261546481905" lon="12.265795773481">
        <ele>500.2</ele>
        <time>2020-01-01T17:04:00Z</time>
      </trkpt>
      <trkpt lat="61.261735912845" lon="12.265940109799">
        <ele>500.4</ele>
        <time>2020-01-01T17:04:02Z</time>
      </trkpt>
      <trkpt lat="61.261938671006" lon="12.265922256352">
        <ele>498.4</ele>
        <time>2020-01-01T17:04:04Z</time>
      </trkpt>
      <trkpt lat="61.262037912702" lon="12.265874060427">
        <ele>497</ele>
        <time>2020-01-01T17:04:05Z</time>
      </trkpt>
      <trkpt lat="61.262130532697" lon="12.265806669951">
        <ele>495.8</ele>
        <time>2020-01-01T17:04:06Z</time>
      </trkpt>
      <trkpt lat="61.262379056032" lon="12.265641965616">
        <ele>494.2</ele>
        <time>2020-01-01T17:04:09Z</time>
      </trkpt>
      <trkpt lat="61.262740567379" lon="12.265411295728">
        <ele>495.2</ele>
        <time>2020-01-01T17:04:14Z</time>
      </trkpt>
      <trkpt lat="61.263078860863" lon="12.26546393406">
        <ele>492.8</ele>
        <time>2020-01-01T17:04:18Z</time>
      </trkpt>
      <trkpt lat="61.263251276546" lon="12.265518835505">
        <ele>491.2</ele>
        <time>2020-01-01T17:04:20Z</time>
      </trkpt>
      <trkpt lat="61.26352586759" lon="12.265609192387">
        <ele>490</ele>
        <time>2020-01-01T17:04:23Z</time>
      </trkpt>
      <trkpt lat="61.263780928807" lon="12.265636852657">
        <ele>488.4</ele>
        <time>2020-01-01T17:04:26Z</time>
      </trkpt>
      <trkpt lat="61.264245788981" lon="12.265513890184">
        <ele>487.6</ele>
        <time>2020-01-01T17:04:32Z</time>
      </trkpt>
      <trkpt lat="61.264712241716" lon="12.265284058486">
        <ele>488.6</ele>
        <time>2020-01-01T17:04:39Z</time>
      </trkpt>
      <trkpt lat="61.264762700754" lon="12.265252458723">
        <ele>489.6</ele>
        <time>2020-01-01T17:04:40Z</time>
      </trkpt>
      <trkpt lat="61.264809807032" lon="12.26522337353">
        <ele>490.8</ele>
        <time>2020-01-01T17:04:41Z</time>
      </trkpt>
      <trkpt lat="61.264940480853" lon="12.265131424087">
        <ele>491.8</ele>
        <time>2020-01-01T17:04:44Z</time>
      </trkpt>
      <trkpt lat="61.265067885733" lon="12.264984908475">
        <ele>492.6</ele>
        <time>2020-01-01T17:04:47Z</time>
      </trkpt>
      <trkpt lat="61.265196212622" lon="12.264772259672">
        <ele>493.2</ele>
        <time>2020-01-01T17:04:50Z</time>
      </trkpt>
      <trkpt lat="61.265485052896" lon="12.264186616319">
        <ele>492</ele>
        <time>2020-01-01T17:04:57Z</time>
      </trkpt>
      <trkpt lat="61.265797613947" lon="12.26353777344">
        <ele>493</ele>
        <time>2020-01-01T17:05:09Z</time>
      </trkpt>
      <trkpt lat="61.265917978031" lon="12.263292938141">
        <ele>494.6</ele>
        <time>2020-01-01T17:05:14Z</time>
      </trkpt>
      <trkpt lat="61.266077150312" lon="12.263047599928">
        <ele>495.6</ele>
        <time>2020-01-01T17:05:19Z</time>
      </trkpt>
      <trkpt lat="61.266352914822" lon="12.26273562561">
        <ele>494.6</ele>
        <time>2020-01-01T17:05:25Z</time>
      </trkpt>
      <trkpt lat="61.266533796224" lon="12.262607801635">
        <ele>492.8</ele>
        <time>2020-01-01T17:05:28Z</time>
      </trkpt>
      <trkpt lat="61.266603533632" lon="12.262569831628">
        <ele>491.4</ele>
        <time>2020-01-01T17:05:29Z</time>
      </trkpt>
      <trkpt lat="61.26667913837" lon="12.262533873277">
        <ele>489.4</ele>
        <time>2020-01-01T17:05:30Z</time>
      </trkpt>
      <trkpt lat="61.266758934058" lon="12.262498501659">
        <ele>487.4</ele>
        <time>2020-01-01T17:05:31Z</time>
      </trkpt>
      <trkpt lat="61.26684509999" lon="12.262468829733">
        <ele>485.4</ele>
        <time>2020-01-01T17:05:32Z</time>
      </trkpt>
      <trkpt lat="61.266932439388" lon="12.262439073988">
        <ele>483.8</ele>
        <time>2020-01-01T17:05:33Z</time>
      </trkpt>
      <trkpt lat="61.267021622804" lon="12.262419711799">
        <ele>482.8</ele>
        <time>2020-01-01T17:05:34Z</time>
      </trkpt>
      <trkpt lat="61.267196050143" lon="12.262392386805">
        <ele>481.8</ele>
        <time>2020-01-01T17:05:36Z</time>
      </trkpt>
      <trkpt lat="61.267656384091" lon="12.262480145298">
        <ele>482</ele>
        <time>2020-01-01T17:05:42Z</time>
      </trkpt>
      <trkpt lat="61.267865931591" lon="12.262534711467">
        <ele>483</ele>
        <time>2020-01-01T17:05:45Z</time>
      </trkpt>
      <trkpt lat="61.26797414192" lon="12.262586260152">
        <ele>484.6</ele>
        <time>2020-01-01T17:05:47Z</time>
      </trkpt>
      <trkpt lat="61.268093332538" lon="12.262622050865">
        <ele>485.8</ele>
        <time>2020-01-01T17:05:49Z</time>
      </trkpt>
      <trkpt lat="61.268441600483" lon="12.262726237882">
        <ele>486</ele>
        <time>2020-01-01T17:05:55Z</time>
      </trkpt>
      <trkpt lat="61.268793724102" lon="12.262804943923">
        <ele>484.4</ele>
        <time>2020-01-01T17:06:00Z</time>
      </trkpt>
      <trkpt lat="61.26886346151" lon="12.262818103506">
        <ele>482.8</ele>
        <time>2020-01-01T17:06:01Z</time>
      </trkpt>
      <trkpt lat="61.268934456203" lon="12.262829251433">
        <ele>481.4</ele>
        <time>2020-01-01T17:06:02Z</time>
      </trkpt>
      <trkpt lat="61.269006792" lon="12.262834783487">
        <ele>480</ele>
        <time>2020-01-01T17:06:03Z</time>
      </trkpt>
      <trkpt lat="61.269146685911" lon="12.262820869533">
        <ele>478.6</ele>
        <time>2020-01-01T17:06:05Z</time>
      </trkpt>
      <trkpt lat="61.269347432416" lon="12.262761441862">
        <ele>477.6</ele>
        <time>2020-01-01T17:06:08Z</time>
      </trkpt>
      <trkpt lat="61.269725372287" lon="12.262574525492">
        <ele>476.4</ele>
        <time>2020-01-01T17:06:14Z</time>
      </trkpt>
      <trkpt lat="61.269865433836" lon="12.262519959323">
        <ele>475</ele>
        <time>2020-01-01T17:06:16Z</time>
      </trkpt>
      <trkpt lat="61.27001178181" lon="12.262491125587">
        <ele>474</ele>
        <time>2020-01-01T17:06:18Z</time>
      </trkpt>
      <trkpt lat="61.270417214313" lon="12.262433458115">
        <ele>476</ele>
        <time>2020-01-01T17:06:24Z</time>
      </trkpt>
      <trkpt lat="61.270482928409" lon="12.262422226369">
        <ele>477.2</ele>
        <time>2020-01-01T17:06:25Z</time>
      </trkpt>
      <trkpt lat="61.270587283064" lon="12.262402193628">
        <ele>478.4</ele>
        <time>2020-01-01T17:06:27Z</time>
      </trkpt>
      <trkpt lat="61.271004869322" lon="12.262327510899">
        <ele>476.8</ele>
        <time>2020-01-01T17:06:34Z</time>
      </trkpt>
      <trkpt lat="61.271065638097" lon="12.262311920565">
        <ele>475.6</ele>
        <time>2020-01-01T17:06:35Z</time>
      </trkpt>
      <trkpt lat="61.271124395216" lon="12.26229641405">
        <ele>474.4</ele>
        <time>2020-01-01T17:06:36Z</time>
      </trkpt>
      <trkpt lat="61.271228749871" lon="12.262269927246">
        <ele>472.8</ele>
        <time>2020-01-01T17:06:38Z</time>
      </trkpt>
      <trkpt lat="61.271379204976" lon="12.262227598651">
        <ele>472.2</ele>
        <time>2020-01-01T17:06:41Z</time>
      </trkpt>
      <trkpt lat="61.271590428856" lon="12.26217906745">
        <ele>474.2</ele>
        <time>2020-01-01T17:06:44Z</time>
      </trkpt>
      <trkpt lat="61.271715235347" lon="12.262157777424">
        <ele>475.4</ele>
        <time>2020-01-01T17:06:46Z</time>
      </trkpt>
      <trkpt lat="61.271774914475" lon="12.262137660864">
        <ele>475.8</ele>
        <time>2020-01-01T17:06:47Z</time>
      </trkpt>
      <trkpt lat="61.271876586922" lon="12.262090806043">
        <ele>475.6</ele>
        <time>2020-01-01T17:06:49Z</time>
      </trkpt>
      <trkpt lat="61.272318564509" lon="12.261885952407">
        <ele>475.2</ele>
        <time>2020-01-01T17:06:57Z</time>
      </trkpt>
      <trkpt lat="61.272561388152" lon="12.261762989934">
        <ele>474.2</ele>
        <time>2020-01-01T17:07:01Z</time>
      </trkpt>
      <trkpt lat="61.272733300921" lon="12.261652516492">
        <ele>472</ele>
        <time>2020-01-01T17:07:04Z</time>
      </trkpt>
      <trkpt lat="61.272791136031" lon="12.261619240349">
        <ele>470.6</ele>
        <time>2020-01-01T17:07:05Z</time>
      </trkpt>
      <trkpt lat="61.272850563702" lon="12.261596022486">
        <ele>469.4</ele>
        <time>2020-01-01T17:07:06Z</time>
      </trkpt>
      <trkpt lat="61.272974280546" lon="12.261554699719">
        <ele>467.6</ele>
        <time>2020-01-01T17:07:08Z</time>
      </trkpt>
      <trkpt lat="61.273159688174" lon="12.261500552645">
        <ele>466.6</ele>
        <time>2020-01-01T17:07:11Z</time>
      </trkpt>
      <trkpt lat="61.273517343847" lon="12.261399969845">
        <ele>465.2</ele>
        <time>2020-01-01T17:07:16Z</time>
      </trkpt>
      <trkpt lat="61.273681293811" lon="12.261343140563">
        <ele>464</ele>
        <time>2020-01-01T17:07:18Z</time>
      </trkpt>
      <trkpt lat="61.273974492673" lon="12.261246497256">
        <ele>462.8</ele>
        <time>2020-01-01T17:07:22Z</time>
      </trkpt>
      <trkpt lat="61.274427534368" lon="12.26109696416">
        <ele>463.4</ele>
        <time>2020-01-01T17:07:29Z</time>
      </trkpt>
      <trkpt lat="61.27447765813" lon="12.261076763781">
        <ele>464.4</ele>
        <time>2020-01-01T17:07:30Z</time>
      </trkpt>
      <trkpt lat="61.274586287554" lon="12.261034519005">
        <ele>465.8</ele>
        <time>2020-01-01T17:07:32Z</time>
      </trkpt>
      <trkpt lat="61.27503589267" lon="12.260872077783">
        <ele>466.6</ele>
        <time>2020-01-01T17:07:40Z</time>
      </trkpt>
      <trkpt lat="61.275538890489" lon="12.260659931894">
        <ele>465.6</ele>
        <time>2020-01-01T17:07:49Z</time>
      </trkpt>
      <trkpt lat="61.275671995061" lon="12.260599163119">
        <ele>464.8</ele>
        <time>2020-01-01T17:07:51Z</time>
      </trkpt>
      <trkpt lat="61.275808955307" lon="12.260545854235">
        <ele>462.6</ele>
        <time>2020-01-01T17:07:53Z</time>
      </trkpt>
      <trkpt lat="61.275876178145" lon="12.26052280401">
        <ele>461.2</ele>
        <time>2020-01-01T17:07:54Z</time>
      </trkpt>
      <trkpt lat="61.275939377671" lon="12.260495227559">
        <ele>459.8</ele>
        <time>2020-01-01T17:07:55Z</time>
      </trkpt>
      <trkpt lat="61.27605429352" lon="12.260445271435">
        <ele>458.8</ele>
        <time>2020-01-01T17:07:57Z</time>
      </trkpt>
      <trkpt lat="61.276287226521" lon="12.260310155207">
        <ele>460.4</ele>
        <time>2020-01-01T17:08:01Z</time>
      </trkpt>
      <trkpt lat="61.27633927812" lon="12.260283752222">
        <ele>461.4</ele>
        <time>2020-01-01T17:08:02Z</time>
      </trkpt>
      <trkpt lat="61.276389653339" lon="12.260263300386">
        <ele>462</ele>
        <time>2020-01-01T17:08:03Z</time>
      </trkpt>
      <trkpt lat="61.276838168808" lon="12.260060793682">
        <ele>462.6</ele>
        <time>2020-01-01T17:08:12Z</time>
      </trkpt>
      <trkpt lat="61.277327001216" lon="12.259835236753">
        <ele>461.8</ele>
        <time>2020-01-01T17:08:21Z</time>
      </trkpt>
      <trkpt lat="61.277675269161" lon="12.259641363406">
        <ele>460.6</ele>
        <time>2020-01-01T17:08:28Z</time>
      </trkpt>
      <trkpt lat="61.278159910619" lon="12.259429049879">
        <ele>460.4</ele>
        <time>2020-01-01T17:08:37Z</time>
      </trkpt>
      <trkpt lat="61.278362165866" lon="12.259266524838">
        <ele>459.6</ele>
        <time>2020-01-01T17:08:41Z</time>
      </trkpt>
      <trkpt lat="61.278750415474" lon="12.258942145308">
        <ele>459</ele>
        <time>2020-01-01T17:08:50Z</time>
      </trkpt>
      <trkpt lat="61.278904810072" lon="12.258779201172">
        <ele>459.4</ele>
        <time>2020-01-01T17:08:54Z</time>
      </trkpt>
      <trkpt lat="61.279058869394" lon="12.258630673904">
        <ele>459.6</ele>
        <time>2020-01-01T17:08:58Z</time>
      </trkpt>
      <trkpt lat="61.279209827413" lon="12.258485499396">
        <ele>460</ele>
        <time>2020-01-01T17:09:02Z</time>
      </trkpt>
      <trkpt lat="61.279451812866" lon="12.258301181415">
        <ele>460.4</ele>
        <time>2020-01-01T17:09:08Z</time>
      </trkpt>
      <trkpt lat="61.279916505402" lon="12.257949309253">
        <ele>459.8</ele>
        <time>2020-01-01T17:09:18Z</time>
      </trkpt>
      <trkpt lat="61.280145331272" lon="12.257783934366">
        <ele>458.4</ele>
        <time>2020-01-01T17:09:22Z</time>
      </trkpt>
      <trkpt lat="61.280310957616" lon="12.257669856707">
        <ele>457.4</ele>
        <time>2020-01-01T17:09:25Z</time>
      </trkpt>
      <trkpt lat="61.280468453517" lon="12.257549995537">
        <ele>456.4</ele>
        <time>2020-01-01T17:09:28Z</time>
      </trkpt>
      <trkpt lat="61.280665344348" lon="12.257372299257">
        <ele>456.6</ele>
        <time>2020-01-01T17:09:32Z</time>
      </trkpt>
      <trkpt lat="61.281036997794" lon="12.256840383883">
        <ele>456</ele>
        <time>2020-01-01T17:09:41Z</time>
      </trkpt>
      <trkpt lat="61.281159289715" lon="12.256618934085">
        <ele>455.2</ele>
        <time>2020-01-01T17:09:44Z</time>
      </trkpt>
      <trkpt lat="61.281560698906" lon="12.256123731433">
        <ele>456</ele>
        <time>2020-01-01T17:09:54Z</time>
      </trkpt>
      <trkpt lat="61.281733114589" lon="12.256011330154">
        <ele>456.2</ele>
        <time>2020-01-01T17:09:58Z</time>
      </trkpt>
      <trkpt lat="61.281944170831" lon="12.255839668842">
        <ele>456.2</ele>
        <time>2020-01-01T17:10:03Z</time>
      </trkpt>
      <trkpt lat="61.28235748232" lon="12.255517552425">
        <ele>456.6</ele>
        <time>2020-01-01T17:10:14Z</time>
      </trkpt>
      <trkpt lat="61.282800549554" lon="12.255231729635">
        <ele>456.2</ele>
        <time>2020-01-01T17:10:24Z</time>
      </trkpt>
      <trkpt lat="61.282956285256" lon="12.255139696373">
        <ele>455.6</ele>
        <time>2020-01-01T17:10:27Z</time>
      </trkpt>
      <trkpt lat="61.283350234556" lon="12.254836942145">
        <ele>454.4</ele>
        <time>2020-01-01T17:10:35Z</time>
      </trkpt>
      <trkpt lat="61.28378743446" lon="12.254578109073">
        <ele>454.4</ele>
        <time>2020-01-01T17:10:44Z</time>
      </trkpt>
      <trkpt lat="61.284232848626" lon="12.254254232457">
        <ele>454.6</ele>
        <time>2020-01-01T17:10:56Z</time>
      </trkpt>
      <trkpt lat="61.284420687005" lon="12.25410059223">
        <ele>455.2</ele>
        <time>2020-01-01T17:11:01Z</time>
      </trkpt>
      <trkpt lat="61.284849840285" lon="12.253830611231">
        <ele>454.8</ele>
        <time>2020-01-01T17:11:12Z</time>
      </trkpt>
      <trkpt lat="61.285049832419" lon="12.253702871075">
        <ele>454.6</ele>
        <time>2020-01-01T17:11:17Z</time>
      </trkpt>
      <trkpt lat="61.285503963761" lon="12.253415539543">
        <ele>453.8</ele>
        <time>2020-01-01T17:11:27Z</time>
      </trkpt>
      <trkpt lat="61.285676379444" lon="12.253274220709">
        <ele>453.4</ele>
        <time>2020-01-01T17:11:31Z</time>
      </trkpt>
      <trkpt lat="61.285759192616" lon="12.253194173564">
        <ele>453.4</ele>
        <time>2020-01-01T17:11:33Z</time>
      </trkpt>
      <trkpt lat="61.285799677193" lon="12.2531559521">
        <ele>453.4</ele>
        <time>2020-01-01T17:11:34Z</time>
      </trkpt>
      <trkpt lat="61.286218436917" lon="12.252818580625">
        <ele>454</ele>
        <time>2020-01-01T17:11:45Z</time>
      </trkpt>
      <trkpt lat="61.286691092258" lon="12.252758566221">
        <ele>453.4</ele>
        <time>2020-01-01T17:11:54Z</time>
      </trkpt>
      <trkpt lat="61.287125777592" lon="12.252379536703">
        <ele>453</ele>
        <time>2020-01-01T17:12:04Z</time>
      </trkpt>
      <trkpt lat="61.287506315852" lon="12.251872180296">
        <ele>453.4</ele>
        <time>2020-01-01T17:12:15Z</time>
      </trkpt>
      <trkpt lat="61.287645874487" lon="12.251674367456">
        <ele>453.6</ele>
        <time>2020-01-01T17:12:19Z</time>
      </trkpt>
      <trkpt lat="61.287898002039" lon="12.251299445069">
        <ele>454.4</ele>
        <time>2020-01-01T17:12:28Z</time>
      </trkpt>
      <trkpt lat="61.288203438475" lon="12.250810025928">
        <ele>455.4</ele>
        <time>2020-01-01T17:12:39Z</time>
      </trkpt>
      <trkpt lat="61.288488255437" lon="12.250408030004">
        <ele>456.4</ele>
        <time>2020-01-01T17:12:49Z</time>
      </trkpt>
      <trkpt lat="61.288645416062" lon="12.250218263788">
        <ele>456.6</ele>
        <time>2020-01-01T17:12:54Z</time>
      </trkpt>
      <trkpt lat="61.288974237999" lon="12.249876533725">
        <ele>457.6</ele>
        <time>2020-01-01T17:13:04Z</time>
      </trkpt>
      <trkpt lat="61.28939492556" lon="12.249539078431">
        <ele>458.4</ele>
        <time>2020-01-01T17:13:16Z</time>
      </trkpt>
      <trkpt lat="61.289829024161" lon="12.249190642848">
        <ele>458.4</ele>
        <time>2020-01-01T17:13:27Z</time>
      </trkpt>
      <trkpt lat="61.290254154129" lon="12.248863413472">
        <ele>457.8</ele>
        <time>2020-01-01T17:13:37Z</time>
      </trkpt>
      <trkpt lat="61.290695461164" lon="12.248538531028">
        <ele>458.2</ele>
        <time>2020-01-01T17:13:47Z</time>
      </trkpt>
      <trkpt lat="61.290779531621" lon="12.248480360642">
        <ele>458.4</ele>
        <time>2020-01-01T17:13:49Z</time>
      </trkpt>
      <trkpt lat="61.291097792364" lon="12.24820895472">
        <ele>458</ele>
        <time>2020-01-01T17:13:57Z</time>
      </trkpt>
      <trkpt lat="61.291379256566" lon="12.247954061141">
        <ele>458</ele>
        <time>2020-01-01T17:14:04Z</time>
      </trkpt>
      <trkpt lat="61.291858114513" lon="12.247798325439">
        <ele>457.2</ele>
        <time>2020-01-01T17:14:14Z</time>
      </trkpt>
      <trkpt lat="61.291972695086" lon="12.247803689855">
        <ele>456.4</ele>
        <time>2020-01-01T17:14:16Z</time>
      </trkpt>
      <trkpt lat="61.292421797288" lon="12.24784685664">
        <ele>455.8</ele>
        <time>2020-01-01T17:14:24Z</time>
      </trkpt>
      <trkpt lat="61.292522547726" lon="12.247837971826">
        <ele>455.4</ele>
        <time>2020-01-01T17:14:26Z</time>
      </trkpt>
      <trkpt lat="61.292603600699" lon="12.247820621293">
        <ele>455.2</ele>
        <time>2020-01-01T17:14:28Z</time>
      </trkpt>
      <trkpt lat="61.293050439788" lon="12.247678464269">
        <ele>455.6</ele>
        <time>2020-01-01T17:14:38Z</time>
      </trkpt>
      <trkpt lat="61.293546815906" lon="12.24749146408">
        <ele>454.2</ele>
        <time>2020-01-01T17:14:47Z</time>
      </trkpt>
      <trkpt lat="61.293725769471" lon="12.247441507956">
        <ele>452.8</ele>
        <time>2020-01-01T17:14:50Z</time>
      </trkpt>
      <trkpt lat="61.293917714981" lon="12.247376464412">
        <ele>451.8</ele>
        <time>2020-01-01T17:14:53Z</time>
      </trkpt>
      <trkpt lat="61.294041096549" lon="12.247336650387">
        <ele>450.4</ele>
        <time>2020-01-01T17:14:55Z</time>
      </trkpt>
      <trkpt lat="61.294105050446" lon="12.247308319565">
        <ele>449.2</ele>
        <time>2020-01-01T17:14:56Z</time>
      </trkpt>
      <trkpt lat="61.294167495601" lon="12.247280910752">
        <ele>448.2</ele>
        <time>2020-01-01T17:14:57Z</time>
      </trkpt>
      <trkpt lat="61.294290541893" lon="12.247232714827">
        <ele>446.6</ele>
        <time>2020-01-01T17:14:59Z</time>
      </trkpt>
      <trkpt lat="61.294567647507" lon="12.247129785095">
        <ele>445.6</ele>
        <time>2020-01-01T17:15:03Z</time>
      </trkpt>
      <trkpt lat="61.294900828032" lon="12.247042948611">
        <ele>447</ele>
        <time>2020-01-01T17:15:08Z</time>
      </trkpt>
      <trkpt lat="61.295005266506" lon="12.247010678296">
        <ele>448.4</ele>
        <time>2020-01-01T17:15:10Z</time>
      </trkpt>
      <trkpt lat="61.29527985755" lon="12.246899618121">
        <ele>449.4</ele>
        <time>2020-01-01T17:15:16Z</time>
      </trkpt>
      <trkpt lat="61.295324113982" lon="12.246885201253">
        <ele>449.4</ele>
        <time>2020-01-01T17:15:17Z</time>
      </trkpt>
      <trkpt lat="61.295399299625" lon="12.246844046124">
        <ele>449.8</ele>
        <time>2020-01-01T17:15:19Z</time>
      </trkpt>
      <trkpt lat="61.29549108143" lon="12.246788641765">
        <ele>450</ele>
        <time>2020-01-01T17:15:21Z</time>
      </trkpt>
      <trkpt lat="61.295996090905" lon="12.246651849157">
        <ele>449.4</ele>
        <time>2020-01-01T17:15:30Z</time>
      </trkpt>
      <trkpt lat="61.296271101044" lon="12.246587559984">
        <ele>448</ele>
        <time>2020-01-01T17:15:35Z</time>
      </trkpt>
      <trkpt lat="61.296434296637" lon="12.246552356004">
        <ele>447.2</ele>
        <time>2020-01-01T17:15:38Z</time>
      </trkpt>
      <trkpt lat="61.296593552737" lon="12.246516565291">
        <ele>447</ele>
        <time>2020-01-01T17:15:41Z</time>
      </trkpt>
      <trkpt lat="61.297049947192" lon="12.246423107106">
        <ele>446.4</ele>
        <time>2020-01-01T17:15:50Z</time>
      </trkpt>
      <trkpt lat="61.297351108859" lon="12.246346831816">
        <ele>445.8</ele>
        <time>2020-01-01T17:15:55Z</time>
      </trkpt>
      <trkpt lat="61.297642798979" lon="12.246242896256">
        <ele>444.4</ele>
        <time>2020-01-01T17:16:00Z</time>
      </trkpt>
      <trkpt lat="61.298082848729" lon="12.246024463942">
        <ele>444.4</ele>
        <time>2020-01-01T17:16:08Z</time>
      </trkpt>
      <trkpt lat="61.298564975617" lon="12.245834530088">
        <ele>444.4</ele>
        <time>2020-01-01T17:16:19Z</time>
      </trkpt>
      <trkpt lat="61.299016760027" lon="12.245674100522">
        <ele>444.2</ele>
        <time>2020-01-01T17:16:28Z</time>
      </trkpt>
      <trkpt lat="61.299485811151" lon="12.245538229923">
        <ele>445</ele>
        <time>2020-01-01T17:16:39Z</time>
      </trkpt>
      <trkpt lat="61.299716900134" lon="12.245431947431">
        <ele>444.2</ele>
        <time>2020-01-01T17:16:44Z</time>
      </trkpt>
      <trkpt lat="61.299793678338" lon="12.24535659415">
        <ele>443.8</ele>
        <time>2020-01-01T17:16:46Z</time>
      </trkpt>
      <trkpt lat="61.299854363294" lon="12.245211419642">
        <ele>443.6</ele>
        <time>2020-01-01T17:16:48Z</time>
      </trkpt>
      <trkpt lat="61.299882526478" lon="12.245120476027">
        <ele>443.4</ele>
        <time>2020-01-01T17:16:49Z</time>
      </trkpt>
      <trkpt lat="61.299917059906" lon="12.245030789697">
        <ele>443</ele>
        <time>2020-01-01T17:16:50Z</time>
      </trkpt>
      <trkpt lat="61.299996604137" lon="12.244895757288">
        <ele>442</ele>
        <time>2020-01-01T17:16:52Z</time>
      </trkpt>
      <trkpt lat="61.300176312073" lon="12.244691658023">
        <ele>441.6</ele>
        <time>2020-01-01T17:16:59Z</time>
      </trkpt>
      <trkpt lat="61.300267674783" lon="12.244581519857">
        <ele>441.6</ele>
        <time>2020-01-01T17:17:12Z</time>
      </trkpt>
      <trkpt lat="61.30031737945" lon="12.244530893181">
        <ele>441.4</ele>
        <time>2020-01-01T17:17:26Z</time>
      </trkpt>
      <trkpt lat="61.300365659194" lon="12.244481775247">
        <ele>441.8</ele>
        <time>2020-01-01T17:17:28Z</time>
      </trkpt>
      <trkpt lat="61.30058392387" lon="12.244228809505">
        <ele>443.2</ele>
        <time>2020-01-01T17:17:36Z</time>
      </trkpt>
      <trkpt lat="61.300736809726" lon="12.244162424857">
        <ele>443.4</ele>
        <time>2020-01-01T17:17:40Z</time>
      </trkpt>
      <trkpt lat="61.301032690796" lon="12.24414792417">
        <ele>441.8</ele>
        <time>2020-01-01T17:17:45Z</time>
      </trkpt>
      <trkpt lat="61.301155401812" lon="12.244124790126">
        <ele>441.2</ele>
        <time>2020-01-01T17:17:47Z</time>
      </trkpt>
      <trkpt lat="61.301269395652" lon="12.244057651107">
        <ele>441</ele>
        <time>2020-01-01T17:17:49Z</time>
      </trkpt>
      <trkpt lat="61.30136008781" lon="12.243935359186">
        <ele>441</ele>
        <time>2020-01-01T17:17:51Z</time>
      </trkpt>
      <trkpt lat="61.301441727516" lon="12.243720279632">
        <ele>441</ele>
        <time>2020-01-01T17:17:53Z</time>
      </trkpt>
      <trkpt lat="61.301682874779" lon="12.243490196477">
        <ele>443</ele>
        <time>2020-01-01T17:18:02Z</time>
      </trkpt>
      <trkpt lat="61.301869372054" lon="12.243455160135">
        <ele>444</ele>
        <time>2020-01-01T17:18:07Z</time>
      </trkpt>
      <trkpt lat="61.302358875014" lon="12.243236224907">
        <ele>444</ele>
        <time>2020-01-01T17:18:18Z</time>
      </trkpt>
      <trkpt lat="61.302619216828" lon="12.243065066509">
        <ele>443</ele>
        <time>2020-01-01T17:18:23Z</time>
      </trkpt>
      <trkpt lat="61.303043257149" lon="12.242704644809">
        <ele>442.2</ele>
        <time>2020-01-01T17:18:32Z</time>
      </trkpt>
      <trkpt lat="61.30342622616" lon="12.242313880631">
        <ele>442.4</ele>
        <time>2020-01-01T17:18:43Z</time>
      </trkpt>
    </trkseg>
  </trk>
</gpx>